sensor_id;sensor_type;location;lat;lon;timestamp;pressure;altitude;pressure_sealevel;temperature;humidity
62779;BME280;48821;48.796;2.396;2024-01-27T00:00:38;103532.47;;;5.55;65.22
62779;BME280;48821;48.796;2.396;2024-01-27T00:01:50;103531.56;;;5.54;65.64
62779;BME280;48821;48.796;2.396;2024-01-27T00:03:02;103531.56;;;5.54;65.47
62779;BME280;48821;48.796;2.396;2024-01-27T00:04:14;103536.78;;;5.54;65.62
62779;BME280;48821;48.796;2.396;2024-01-27T00:05:26;103528.97;;;5.54;65.61
62779;BME280;48821;48.796;2.396;2024-01-27T00:06:38;103541.06;;;5.52;65.41
62779;BME280;48821;48.796;2.396;2024-01-27T00:07:50;103534.13;;;5.53;65.45
62779;BME280;48821;48.796;2.396;2024-01-27T00:09:02;103532.34;;;5.51;65.64
62779;BME280;48821;48.796;2.396;2024-01-27T00:10:14;103534.13;;;5.53;65.50
62779;BME280;48821;48.796;2.396;2024-01-27T00:11:26;103533.25;;;5.52;65.49
62779;BME280;48821;48.796;2.396;2024-01-27T00:12:38;103536.69;;;5.51;65.76
62779;BME280;48821;48.796;2.396;2024-01-27T00:13:50;103532.31;;;5.50;65.45
62779;BME280;48821;48.796;2.396;2024-01-27T00:15:02;103534.91;;;5.50;65.53
62779;BME280;48821;48.796;2.396;2024-01-27T00:16:14;103536.59;;;5.48;66.22
62779;BME280;48821;48.796;2.396;2024-01-27T00:17:26;103536.53;;;5.46;65.90
62779;BME280;48821;48.796;2.396;2024-01-27T00:18:39;103536.47;;;5.45;65.98
62779;BME280;48821;48.796;2.396;2024-01-27T00:19:51;103538.16;;;5.43;65.94
62779;BME280;48821;48.796;2.396;2024-01-27T00:21:06;103536.38;;;5.42;65.98
62779;BME280;48821;48.796;2.396;2024-01-27T00:22:17;103536.38;;;5.42;65.91
62779;BME280;48821;48.796;2.396;2024-01-27T00:23:28;103533.75;;;5.42;66.25
62779;BME280;48821;48.796;2.396;2024-01-27T00:24:39;103543.38;;;5.43;66.10
62779;BME280;48821;48.796;2.396;2024-01-27T00:25:51;103537.22;;;5.40;66.11
62779;BME280;48821;48.796;2.396;2024-01-27T00:27:03;103542.44;;;5.40;65.97
62779;BME280;48821;48.796;2.396;2024-01-27T00:28:15;103551.97;;;5.40;65.80
62779;BME280;48821;48.796;2.396;2024-01-27T00:29:27;103551.09;;;5.39;66.24
62779;BME280;48821;48.796;2.396;2024-01-27T00:30:39;103553.69;;;5.39;66.00
62779;BME280;48821;48.796;2.396;2024-01-27T00:31:51;103559.81;;;5.40;65.79
62779;BME280;48821;48.796;2.396;2024-01-27T00:33:03;103554.50;;;5.38;66.38
62779;BME280;48821;48.796;2.396;2024-01-27T00:34:15;103551.03;;;5.38;66.45
62779;BME280;48821;48.796;2.396;2024-01-27T00:35:27;103552.72;;;5.36;66.18
62779;BME280;48821;48.796;2.396;2024-01-27T00:36:39;103559.56;;;5.34;66.25
62779;BME280;48821;48.796;2.396;2024-01-27T00:37:52;103552.59;;;5.33;66.02
62779;BME280;48821;48.796;2.396;2024-01-27T00:39:03;103548.22;;;5.32;66.00
62779;BME280;48821;48.796;2.396;2024-01-27T00:40:15;103554.28;;;5.31;66.17
62779;BME280;48821;48.796;2.396;2024-01-27T00:41:27;103552.50;;;5.29;66.18
62779;BME280;48821;48.796;2.396;2024-01-27T00:42:40;103548.97;;;5.29;66.25
62779;BME280;48821;48.796;2.396;2024-01-27T00:43:51;103550.69;;;5.28;66.18
62779;BME280;48821;48.796;2.396;2024-01-27T00:45:04;103540.22;;;5.27;66.38
62779;BME280;48821;48.796;2.396;2024-01-27T00:46:16;103540.22;;;5.27;66.29
62779;BME280;48821;48.796;2.396;2024-01-27T00:47:28;103533.25;;;5.26;66.15
62779;BME280;48821;48.796;2.396;2024-01-27T00:48:40;103533.25;;;5.26;66.23
62779;BME280;48821;48.796;2.396;2024-01-27T00:49:52;103528.84;;;5.25;66.54
62779;BME280;48821;48.796;2.396;2024-01-27T00:51:05;103530.56;;;5.24;66.35
62779;BME280;48821;48.796;2.396;2024-01-27T00:52:17;103541.91;;;5.25;66.32
62779;BME280;48821;48.796;2.396;2024-01-27T00:53:29;103534.91;;;5.24;66.63
62779;BME280;48821;48.796;2.396;2024-01-27T00:54:41;103539.28;;;5.25;66.57
62779;BME280;48821;48.796;2.396;2024-01-27T00:55:53;103541.00;;;5.24;66.96
62779;BME280;48821;48.796;2.396;2024-01-27T00:57:05;103547.06;;;5.23;66.52
62779;BME280;48821;48.796;2.396;2024-01-27T00:58:18;103549.59;;;5.22;66.63
62779;BME280;48821;48.796;2.396;2024-01-27T00:59:29;103541.78;;;5.22;66.70
62779;BME280;48821;48.796;2.396;2024-01-27T01:00:41;103539.94;;;5.19;66.57
62779;BME280;48821;48.796;2.396;2024-01-27T01:01:54;103539.94;;;5.19;66.51
62779;BME280;48821;48.796;2.396;2024-01-27T01:03:07;103530.31;;;5.16;66.59
62779;BME280;48821;48.796;2.396;2024-01-27T01:04:19;103539.06;;;5.18;66.72
62779;BME280;48821;48.796;2.396;2024-01-27T01:05:31;103538.25;;;5.20;66.94
62779;BME280;48821;48.796;2.396;2024-01-27T01:06:44;103539.94;;;5.19;66.89
62779;BME280;48821;48.796;2.396;2024-01-27T01:07:55;103539.06;;;5.18;66.94
62779;BME280;48821;48.796;2.396;2024-01-27T01:09:08;103536.41;;;5.17;66.60
62779;BME280;48821;48.796;2.396;2024-01-27T01:10:21;103535.44;;;5.13;66.79
62779;BME280;48821;48.796;2.396;2024-01-27T01:11:33;103542.41;;;5.14;66.75
62779;BME280;48821;48.796;2.396;2024-01-27T01:12:45;103537.16;;;5.13;66.84
62779;BME280;48821;48.796;2.396;2024-01-27T01:13:57;103536.28;;;5.14;66.62
62779;BME280;48821;48.796;2.396;2024-01-27T01:15:09;103533.69;;;5.14;66.78
62779;BME280;48821;48.796;2.396;2024-01-27T01:16:21;103528.47;;;5.14;66.35
62779;BME280;48821;48.796;2.396;2024-01-27T01:17:33;103528.44;;;5.12;66.47
62779;BME280;48821;48.796;2.396;2024-01-27T01:18:45;103527.50;;;5.10;66.61
62779;BME280;48821;48.796;2.396;2024-01-27T01:19:56;103525.78;;;5.11;67.05
62779;BME280;48821;48.796;2.396;2024-01-27T01:21:08;103522.22;;;5.09;66.79
62779;BME280;48821;48.796;2.396;2024-01-27T01:22:20;103519.56;;;5.07;66.53
62779;BME280;48821;48.796;2.396;2024-01-27T01:23:32;103523.06;;;5.07;66.76
62779;BME280;48821;48.796;2.396;2024-01-27T01:24:44;103510.78;;;5.05;66.94
62779;BME280;48821;48.796;2.396;2024-01-27T01:25:56;103508.19;;;5.05;66.86
62779;BME280;48821;48.796;2.396;2024-01-27T01:27:08;103509.00;;;5.04;66.89
62779;BME280;48821;48.796;2.396;2024-01-27T01:28:20;103516.81;;;5.04;66.61
62779;BME280;48821;48.796;2.396;2024-01-27T01:29:32;103512.38;;;5.01;67.01
62779;BME280;48821;48.796;2.396;2024-01-27T01:30:44;103515.00;;;5.01;67.01
62779;BME280;48821;48.796;2.396;2024-01-27T01:31:56;103510.59;;;4.99;67.16
62779;BME280;48821;48.796;2.396;2024-01-27T01:33:10;103514.97;;;5.00;67.00
62779;BME280;48821;48.796;2.396;2024-01-27T01:34:21;103513.13;;;4.97;67.41
62779;BME280;48821;48.796;2.396;2024-01-27T01:35:33;103507.91;;;4.97;67.26
62779;BME280;48821;48.796;2.396;2024-01-27T01:36:45;103506.19;;;4.98;67.19
62779;BME280;48821;48.796;2.396;2024-01-27T01:37:57;103510.53;;;4.97;67.45
62779;BME280;48821;48.796;2.396;2024-01-27T01:39:10;103515.69;;;4.95;66.81
62779;BME280;48821;48.796;2.396;2024-01-27T01:40:22;103519.13;;;4.94;66.75
62779;BME280;48821;48.796;2.396;2024-01-27T01:41:34;103517.34;;;4.93;66.63
62779;BME280;48821;48.796;2.396;2024-01-27T01:42:50;103510.34;;;4.92;67.14
62779;BME280;48821;48.796;2.396;2024-01-27T01:44:02;103519.84;;;4.90;66.98
62779;BME280;48821;48.796;2.396;2024-01-27T01:45:13;103525.06;;;4.90;66.94
62779;BME280;48821;48.796;2.396;2024-01-27T01:46:26;103519.81;;;4.89;67.07
62779;BME280;48821;48.796;2.396;2024-01-27T01:47:37;103520.66;;;4.89;66.85
62779;BME280;48821;48.796;2.396;2024-01-27T01:48:50;103504.97;;;4.88;66.91
62779;BME280;48821;48.796;2.396;2024-01-27T01:50:01;103509.25;;;4.86;67.05
62779;BME280;48821;48.796;2.396;2024-01-27T01:51:14;103508.38;;;4.85;66.83
62779;BME280;48821;48.796;2.396;2024-01-27T01:52:24;103514.41;;;4.84;67.40
62779;BME280;48821;48.796;2.396;2024-01-27T01:53:36;103516.13;;;4.83;67.07
62779;BME280;48821;48.796;2.396;2024-01-27T01:54:51;103517.84;;;4.83;67.26
62779;BME280;48821;48.796;2.396;2024-01-27T01:56:02;103513.47;;;4.82;67.06
62779;BME280;48821;48.796;2.396;2024-01-27T01:57:15;103519.56;;;4.82;67.54
62779;BME280;48821;48.796;2.396;2024-01-27T01:58:27;103510.84;;;4.82;67.25
62779;BME280;48821;48.796;2.396;2024-01-27T01:59:45;103514.34;;;4.82;67.25
62779;BME280;48821;48.796;2.396;2024-01-27T02:00:57;103512.53;;;4.80;67.36
62779;BME280;48821;48.796;2.396;2024-01-27T02:02:09;103519.44;;;4.79;67.41
62779;BME280;48821;48.796;2.396;2024-01-27T02:03:21;103522.91;;;4.78;67.47
62779;BME280;48821;48.796;2.396;2024-01-27T02:04:45;103528.13;;;4.78;68.01
62779;BME280;48821;48.796;2.396;2024-01-27T02:06:00;103529.00;;;4.79;67.60
62779;BME280;48821;48.796;2.396;2024-01-27T02:07:12;103524.63;;;4.78;67.96
62779;BME280;48821;48.796;2.396;2024-01-27T02:08:24;103525.50;;;4.78;67.80
62779;BME280;48821;48.796;2.396;2024-01-27T02:09:36;103522.81;;;4.77;67.89
62779;BME280;48821;48.796;2.396;2024-01-27T02:10:48;103529.81;;;4.78;67.81
62779;BME280;48821;48.796;2.396;2024-01-27T02:12:01;103528.00;;;4.75;67.86
62779;BME280;48821;48.796;2.396;2024-01-27T02:13:22;103523.66;;;4.76;67.85
62779;BME280;48821;48.796;2.396;2024-01-27T02:14:34;103532.31;;;4.75;67.86
62779;BME280;48821;48.796;2.396;2024-01-27T02:15:46;103520.94;;;4.72;67.65
62779;BME280;48821;48.796;2.396;2024-01-27T02:16:58;103528.75;;;4.72;67.46
62779;BME280;48821;48.796;2.396;2024-01-27T02:18:10;103521.78;;;4.71;67.65
62779;BME280;48821;48.796;2.396;2024-01-27T02:19:23;103518.28;;;4.71;67.63
62779;BME280;48821;48.796;2.396;2024-01-27T02:20:35;103521.78;;;4.71;67.61
62779;BME280;48821;48.796;2.396;2024-01-27T02:21:47;103519.19;;;4.71;67.79
62779;BME280;48821;48.796;2.396;2024-01-27T02:22:59;103520.00;;;4.70;67.54
62779;BME280;48821;48.796;2.396;2024-01-27T02:24:15;103517.34;;;4.69;67.70
62779;BME280;48821;48.796;2.396;2024-01-27T02:25:26;103516.38;;;4.67;67.30
62779;BME280;48821;48.796;2.396;2024-01-27T02:26:38;103508.53;;;4.65;67.90
62779;BME280;48821;48.796;2.396;2024-01-27T02:27:50;103509.38;;;4.64;67.74
62779;BME280;48821;48.796;2.396;2024-01-27T02:29:03;103509.38;;;4.64;67.44
62779;BME280;48821;48.796;2.396;2024-01-27T02:30:15;103507.59;;;4.63;67.63
62779;BME280;48821;48.796;2.396;2024-01-27T02:31:27;103511.91;;;4.63;67.63
62779;BME280;48821;48.796;2.396;2024-01-27T02:32:38;103510.16;;;4.61;67.70
62779;BME280;48821;48.796;2.396;2024-01-27T02:33:51;103510.06;;;4.60;67.68
62779;BME280;48821;48.796;2.396;2024-01-27T02:35:04;103500.50;;;4.59;67.67
62779;BME280;48821;48.796;2.396;2024-01-27T02:36:16;103504.81;;;4.58;67.71
62779;BME280;48821;48.796;2.396;2024-01-27T02:37:27;103499.53;;;4.57;67.97
62779;BME280;48821;48.796;2.396;2024-01-27T02:38:39;103502.13;;;4.57;67.78
62779;BME280;48821;48.796;2.396;2024-01-27T02:39:51;103502.13;;;4.57;68.12
62779;BME280;48821;48.796;2.396;2024-01-27T02:41:04;103505.59;;;4.56;67.66
62779;BME280;48821;48.796;2.396;2024-01-27T02:42:16;103501.25;;;4.56;67.84
62779;BME280;48821;48.796;2.396;2024-01-27T02:43:27;103495.94;;;4.53;67.90
62779;BME280;48821;48.796;2.396;2024-01-27T02:44:38;103496.81;;;4.54;67.94
62779;BME280;48821;48.796;2.396;2024-01-27T02:45:49;103494.22;;;4.54;67.75
62779;BME280;48821;48.796;2.396;2024-01-27T02:47:00;103495.03;;;4.53;67.96
62779;BME280;48821;48.796;2.396;2024-01-27T02:48:12;103493.31;;;4.53;67.84
62779;BME280;48821;48.796;2.396;2024-01-27T02:49:24;103494.16;;;4.52;68.13
62779;BME280;48821;48.796;2.396;2024-01-27T02:50:37;103488.94;;;4.52;67.55
62779;BME280;48821;48.796;2.396;2024-01-27T02:51:51;103490.69;;;4.52;67.66
62779;BME280;48821;48.796;2.396;2024-01-27T02:53:02;103501.91;;;4.50;67.88
62779;BME280;48821;48.796;2.396;2024-01-27T02:54:14;103500.97;;;4.48;68.00
62779;BME280;48821;48.796;2.396;2024-01-27T02:55:28;103502.69;;;4.48;68.19
62779;BME280;48821;48.796;2.396;2024-01-27T02:56:39;103494.81;;;4.46;67.87
62779;BME280;48821;48.796;2.396;2024-01-27T02:57:52;103487.91;;;4.47;67.82
62779;BME280;48821;48.796;2.396;2024-01-27T02:59:04;103493.94;;;4.46;68.17
62779;BME280;48821;48.796;2.396;2024-01-27T03:00:18;103496.50;;;4.44;67.85
62779;BME280;48821;48.796;2.396;2024-01-27T03:01:30;103487.69;;;4.42;68.21
62779;BME280;48821;48.796;2.396;2024-01-27T03:02:42;103493.81;;;4.43;67.93
62779;BME280;48821;48.796;2.396;2024-01-27T03:03:55;103495.50;;;4.42;68.15
62779;BME280;48821;48.796;2.396;2024-01-27T03:05:07;103489.44;;;4.42;67.99
62779;BME280;48821;48.796;2.396;2024-01-27T03:06:19;103484.16;;;4.40;67.67
62779;BME280;48821;48.796;2.396;2024-01-27T03:07:30;103488.44;;;4.38;67.90
62779;BME280;48821;48.796;2.396;2024-01-27T03:08:42;103492.75;;;4.37;67.96
62779;BME280;48821;48.796;2.396;2024-01-27T03:09:55;103499.69;;;4.37;68.23
62779;BME280;48821;48.796;2.396;2024-01-27T03:11:08;103497.91;;;4.36;68.05
62779;BME280;48821;48.796;2.396;2024-01-27T03:12:20;103501.41;;;4.36;68.16
62779;BME280;48821;48.796;2.396;2024-01-27T03:13:34;103493.50;;;4.35;68.05
62779;BME280;48821;48.796;2.396;2024-01-27T03:14:46;103490.91;;;4.35;67.82
62779;BME280;48821;48.796;2.396;2024-01-27T03:15:59;103490.88;;;4.33;67.81
62779;BME280;48821;48.796;2.396;2024-01-27T03:17:11;103479.56;;;4.33;68.19
62779;BME280;48821;48.796;2.396;2024-01-27T03:18:23;103486.47;;;4.32;68.03
62779;BME280;48821;48.796;2.396;2024-01-27T03:19:36;103480.31;;;4.30;68.02
62779;BME280;48821;48.796;2.396;2024-01-27T03:20:49;103488.13;;;4.30;67.71
62779;BME280;48821;48.796;2.396;2024-01-27T03:22:01;103482.88;;;4.28;67.77
62779;BME280;48821;48.796;2.396;2024-01-27T03:23:13;103488.03;;;4.27;67.83
62779;BME280;48821;48.796;2.396;2024-01-27T03:24:26;103486.25;;;4.26;68.26
62779;BME280;48821;48.796;2.396;2024-01-27T03:25:38;103489.66;;;4.25;68.29
62779;BME280;48821;48.796;2.396;2024-01-27T03:26:50;103482.72;;;4.24;67.62
62779;BME280;48821;48.796;2.396;2024-01-27T03:28:02;103482.63;;;4.22;68.03
62779;BME280;48821;48.796;2.396;2024-01-27T03:29:14;103483.47;;;4.21;67.95
62779;BME280;48821;48.796;2.396;2024-01-27T03:30:26;103486.97;;;4.22;68.08
62779;BME280;48821;48.796;2.396;2024-01-27T03:31:38;103488.63;;;4.20;68.28
62779;BME280;48821;48.796;2.396;2024-01-27T03:32:50;103484.19;;;4.17;68.49
62779;BME280;48821;48.796;2.396;2024-01-27T03:34:02;103482.41;;;4.16;68.36
62779;BME280;48821;48.796;2.396;2024-01-27T03:35:13;103482.41;;;4.16;67.79
62779;BME280;48821;48.796;2.396;2024-01-27T03:36:26;103483.22;;;4.15;68.01
62779;BME280;48821;48.796;2.396;2024-01-27T03:37:37;103477.03;;;4.11;68.15
62779;BME280;48821;48.796;2.396;2024-01-27T03:38:49;103476.13;;;4.11;67.70
62779;BME280;48821;48.796;2.396;2024-01-27T03:40:01;103477.78;;;4.09;68.15
62779;BME280;48821;48.796;2.396;2024-01-27T03:41:12;103479.50;;;4.08;68.42
62779;BME280;48821;48.796;2.396;2024-01-27T03:42:24;103476.91;;;4.08;67.98
62779;BME280;48821;48.796;2.396;2024-01-27T03:43:36;103477.66;;;4.05;68.08
62779;BME280;48821;48.796;2.396;2024-01-27T03:44:48;103475.97;;;4.06;67.67
62779;BME280;48821;48.796;2.396;2024-01-27T03:46:01;103476.78;;;4.05;67.91
62779;BME280;48821;48.796;2.396;2024-01-27T03:47:14;103476.72;;;4.03;68.30
62779;BME280;48821;48.796;2.396;2024-01-27T03:48:25;103480.22;;;4.04;67.93
62779;BME280;48821;48.796;2.396;2024-01-27T03:49:37;103476.69;;;4.02;67.90
62779;BME280;48821;48.796;2.396;2024-01-27T03:50:49;103474.00;;;4.00;68.45
62779;BME280;48821;48.796;2.396;2024-01-27T03:52:01;103476.50;;;3.97;68.55
62779;BME280;48821;48.796;2.396;2024-01-27T03:53:13;103480.81;;;3.97;68.06
62779;BME280;48821;48.796;2.396;2024-01-27T03:54:25;103466.91;;;3.96;68.38
62779;BME280;48821;48.796;2.396;2024-01-27T03:55:36;103471.22;;;3.96;68.38
62779;BME280;48821;48.796;2.396;2024-01-27T03:56:48;103468.63;;;3.96;68.24
62779;BME280;48821;48.796;2.396;2024-01-27T03:57:59;103480.75;;;3.95;67.82
62779;BME280;48821;48.796;2.396;2024-01-27T03:59:12;103471.16;;;3.94;68.50
62779;BME280;48821;48.796;2.396;2024-01-27T04:00:24;103473.63;;;3.91;67.79
62779;BME280;48821;48.796;2.396;2024-01-27T04:01:36;103477.09;;;3.90;68.67
62779;BME280;48821;48.796;2.396;2024-01-27T04:02:48;103486.66;;;3.91;68.24
62779;BME280;48821;48.796;2.396;2024-01-27T04:04:00;103482.22;;;3.88;68.33
62779;BME280;48821;48.796;2.396;2024-01-27T04:05:12;103483.06;;;3.87;68.31
62779;BME280;48821;48.796;2.396;2024-01-27T04:06:24;103476.97;;;3.87;68.47
62779;BME280;48821;48.796;2.396;2024-01-27T04:07:35;103473.50;;;3.88;68.41
62779;BME280;48821;48.796;2.396;2024-01-27T04:08:49;103478.72;;;3.88;68.37
62779;BME280;48821;48.796;2.396;2024-01-27T04:10:02;103466.53;;;3.87;68.48
62779;BME280;48821;48.796;2.396;2024-01-27T04:11:21;103465.66;;;3.86;68.68
62779;BME280;48821;48.796;2.396;2024-01-27T04:12:33;103472.56;;;3.86;69.00
62779;BME280;48821;48.796;2.396;2024-01-27T04:13:45;103468.22;;;3.85;68.77
62779;BME280;48821;48.796;2.396;2024-01-27T04:14:58;103469.09;;;3.85;68.92
62779;BME280;48821;48.796;2.396;2024-01-27T04:16:11;103467.38;;;3.86;68.86
62779;BME280;48821;48.796;2.396;2024-01-27T04:17:22;103466.53;;;3.87;68.90
62779;BME280;48821;48.796;2.396;2024-01-27T04:18:34;103467.44;;;3.87;68.90
62779;BME280;48821;48.796;2.396;2024-01-27T04:19:46;103468.31;;;3.88;68.65
62779;BME280;48821;48.796;2.396;2024-01-27T04:20:58;103470.03;;;3.87;68.85
62779;BME280;48821;48.796;2.396;2024-01-27T04:22:09;103470.03;;;3.87;68.59
62779;BME280;48821;48.796;2.396;2024-01-27T04:23:21;103469.09;;;3.85;68.60
62779;BME280;48821;48.796;2.396;2024-01-27T04:24:32;103474.34;;;3.87;68.90
62779;BME280;48821;48.796;2.396;2024-01-27T04:25:45;103470.84;;;3.86;68.80
62779;BME280;48821;48.796;2.396;2024-01-27T04:26:58;103471.75;;;3.87;68.65
62779;BME280;48821;48.796;2.396;2024-01-27T04:28:10;103476.97;;;3.87;68.99
62779;BME280;48821;48.796;2.396;2024-01-27T04:29:24;103476.00;;;3.85;68.81
62779;BME280;48821;48.796;2.396;2024-01-27T04:30:36;103476.00;;;3.85;68.86
62779;BME280;48821;48.796;2.396;2024-01-27T04:31:48;103484.63;;;3.83;68.82
62779;BME280;48821;48.796;2.396;2024-01-27T04:33:01;103481.13;;;3.83;68.68
62779;BME280;48821;48.796;2.396;2024-01-27T04:34:12;103479.44;;;3.83;68.62
62779;BME280;48821;48.796;2.396;2024-01-27T04:35:24;103469.88;;;3.82;68.46
62779;BME280;48821;48.796;2.396;2024-01-27T04:36:36;103471.50;;;3.80;68.56
62779;BME280;48821;48.796;2.396;2024-01-27T04:37:48;103474.94;;;3.79;68.85
62779;BME280;48821;48.796;2.396;2024-01-27T04:39:00;103478.34;;;3.78;68.33
62779;BME280;48821;48.796;2.396;2024-01-27T04:40:13;103487.00;;;3.77;68.33
62779;BME280;48821;48.796;2.396;2024-01-27T04:41:24;103493.03;;;3.76;68.75
62779;BME280;48821;48.796;2.396;2024-01-27T04:42:40;103492.13;;;3.76;68.71
62779;BME280;48821;48.796;2.396;2024-01-27T04:43:52;103497.31;;;3.76;68.83
62779;BME280;48821;48.796;2.396;2024-01-27T04:45:07;103491.25;;;3.75;68.63
62779;BME280;48821;48.796;2.396;2024-01-27T04:46:19;103492.06;;;3.74;68.91
62779;BME280;48821;48.796;2.396;2024-01-27T04:47:31;103495.50;;;3.73;68.40
62779;BME280;48821;48.796;2.396;2024-01-27T04:48:43;103492.88;;;3.73;68.16
62779;BME280;48821;48.796;2.396;2024-01-27T04:49:55;103480.72;;;3.72;68.82
62779;BME280;48821;48.796;2.396;2024-01-27T04:51:08;103482.38;;;3.70;68.78
62779;BME280;48821;48.796;2.396;2024-01-27T04:52:20;103491.00;;;3.69;68.45
62779;BME280;48821;48.796;2.396;2024-01-27T04:53:32;103487.50;;;3.68;68.34
62779;BME280;48821;48.796;2.396;2024-01-27T04:54:44;103483.06;;;3.66;69.20
62779;BME280;48821;48.796;2.396;2024-01-27T04:55:57;103486.56;;;3.66;68.84
62779;BME280;48821;48.796;2.396;2024-01-27T04:57:09;103482.19;;;3.65;68.78
62779;BME280;48821;48.796;2.396;2024-01-27T04:58:21;103476.91;;;3.64;68.57
62779;BME280;48821;48.796;2.396;2024-01-27T04:59:34;103486.41;;;3.63;68.95
62779;BME280;48821;48.796;2.396;2024-01-27T05:00:46;103489.88;;;3.62;69.05
62779;BME280;48821;48.796;2.396;2024-01-27T05:01:58;103484.56;;;3.60;68.94
62779;BME280;48821;48.796;2.396;2024-01-27T05:03:09;103490.69;;;3.61;68.34
62779;BME280;48821;48.796;2.396;2024-01-27T05:04:25;103490.63;;;3.59;68.44
62779;BME280;48821;48.796;2.396;2024-01-27T05:05:38;103492.28;;;3.57;68.76
62779;BME280;48821;48.796;2.396;2024-01-27T05:06:52;103494.00;;;3.57;68.28
62779;BME280;48821;48.796;2.396;2024-01-27T05:08:04;103497.41;;;3.56;68.65
62779;BME280;48821;48.796;2.396;2024-01-27T05:09:16;103494.69;;;3.53;69.00
62779;BME280;48821;48.796;2.396;2024-01-27T05:10:28;103496.41;;;3.52;68.48
62779;BME280;48821;48.796;2.396;2024-01-27T05:11:39;103495.56;;;3.53;69.04
62779;BME280;48821;48.796;2.396;2024-01-27T05:12:51;103501.66;;;3.54;68.58
62779;BME280;48821;48.796;2.396;2024-01-27T05:14:03;103498.09;;;3.52;68.60
62779;BME280;48821;48.796;2.396;2024-01-27T05:15:16;103499.81;;;3.51;68.70
62779;BME280;48821;48.796;2.396;2024-01-27T05:16:28;103498.06;;;3.50;68.80
62779;BME280;48821;48.796;2.396;2024-01-27T05:17:40;103497.09;;;3.48;68.38
62779;BME280;48821;48.796;2.396;2024-01-27T05:18:53;103504.06;;;3.49;68.70
62779;BME280;48821;48.796;2.396;2024-01-27T05:20:08;103502.31;;;3.48;69.18
62779;BME280;48821;48.796;2.396;2024-01-27T05:21:20;103507.50;;;3.48;68.84
62779;BME280;48821;48.796;2.396;2024-01-27T05:22:32;103503.13;;;3.47;68.82
62779;BME280;48821;48.796;2.396;2024-01-27T05:23:45;103507.50;;;3.48;68.72
62779;BME280;48821;48.796;2.396;2024-01-27T05:24:57;103509.09;;;3.44;69.05
62779;BME280;48821;48.796;2.396;2024-01-27T05:26:08;103516.88;;;3.44;68.46
62779;BME280;48821;48.796;2.396;2024-01-27T05:27:22;103508.19;;;3.44;68.88
62779;BME280;48821;48.796;2.396;2024-01-27T05:28:36;103505.53;;;3.42;68.56
62779;BME280;48821;48.796;2.396;2024-01-27T05:29:47;103507.19;;;3.40;69.01
62779;BME280;48821;48.796;2.396;2024-01-27T05:30:59;103506.28;;;3.40;68.93
62779;BME280;48821;48.796;2.396;2024-01-27T05:32:13;103502.75;;;3.37;68.67
62779;BME280;48821;48.796;2.396;2024-01-27T05:33:25;103502.75;;;3.37;68.40
62779;BME280;48821;48.796;2.396;2024-01-27T05:34:38;103508.75;;;3.36;68.89
62779;BME280;48821;48.796;2.396;2024-01-27T05:35:50;103507.00;;;3.35;68.79
62779;BME280;48821;48.796;2.396;2024-01-27T05:37:03;103508.75;;;3.36;69.30
62779;BME280;48821;48.796;2.396;2024-01-27T05:38:15;103499.25;;;3.37;68.64
62779;BME280;48821;48.796;2.396;2024-01-27T05:39:27;103496.66;;;3.37;68.75
62779;BME280;48821;48.796;2.396;2024-01-27T05:40:40;103493.16;;;3.36;68.86
62779;BME280;48821;48.796;2.396;2024-01-27T05:41:52;103489.66;;;3.36;68.64
62779;BME280;48821;48.796;2.396;2024-01-27T05:43:04;103491.41;;;3.35;69.04
62779;BME280;48821;48.796;2.396;2024-01-27T05:44:16;103486.09;;;3.34;68.57
62779;BME280;48821;48.796;2.396;2024-01-27T05:45:28;103486.88;;;3.31;68.78
62779;BME280;48821;48.796;2.396;2024-01-27T05:46:42;103492.91;;;3.30;68.46
62779;BME280;48821;48.796;2.396;2024-01-27T05:47:55;103495.50;;;3.30;68.96
62779;BME280;48821;48.796;2.396;2024-01-27T05:49:07;103491.19;;;3.31;68.69
62779;BME280;48821;48.796;2.396;2024-01-27T05:50:18;103491.13;;;3.29;68.55
62779;BME280;48821;48.796;2.396;2024-01-27T05:51:31;103496.25;;;3.28;68.85
62779;BME280;48821;48.796;2.396;2024-01-27T05:52:43;103486.75;;;3.28;68.81
62779;BME280;48821;48.796;2.396;2024-01-27T05:53:55;103489.34;;;3.28;68.56
62779;BME280;48821;48.796;2.396;2024-01-27T05:55:06;103496.25;;;3.28;68.66
62779;BME280;48821;48.796;2.396;2024-01-27T05:56:18;103497.03;;;3.25;69.05
62779;BME280;48821;48.796;2.396;2024-01-27T05:57:32;103484.03;;;3.25;68.94
62779;BME280;48821;48.796;2.396;2024-01-27T05:58:44;103481.41;;;3.25;68.93
62779;BME280;48821;48.796;2.396;2024-01-27T05:59:56;103483.06;;;3.23;69.05
62779;BME280;48821;48.796;2.396;2024-01-27T06:01:07;103486.56;;;3.23;68.85
62779;BME280;48821;48.796;2.396;2024-01-27T06:02:20;103478.78;;;3.23;68.56
62779;BME280;48821;48.796;2.396;2024-01-27T06:03:33;103478.78;;;3.23;68.73
62779;BME280;48821;48.796;2.396;2024-01-27T06:04:46;103484.81;;;3.24;68.67
62779;BME280;48821;48.796;2.396;2024-01-27T06:06:00;103479.63;;;3.24;69.01
62779;BME280;48821;48.796;2.396;2024-01-27T06:07:12;103478.69;;;3.22;69.07
62779;BME280;48821;48.796;2.396;2024-01-27T06:08:24;103477.88;;;3.23;68.95
62779;BME280;48821;48.796;2.396;2024-01-27T06:09:37;103488.19;;;3.21;68.67
62779;BME280;48821;48.796;2.396;2024-01-27T06:10:49;103487.31;;;3.21;69.08
62779;BME280;48821;48.796;2.396;2024-01-27T06:12:00;103492.53;;;3.21;69.04
62779;BME280;48821;48.796;2.396;2024-01-27T06:13:14;103495.88;;;3.18;68.94
62779;BME280;48821;48.796;2.396;2024-01-27T06:14:26;103494.97;;;3.18;68.59
62779;BME280;48821;48.796;2.396;2024-01-27T06:15:38;103491.50;;;3.17;68.96
62779;BME280;48821;48.796;2.396;2024-01-27T06:16:50;103496.63;;;3.15;69.13
62779;BME280;48821;48.796;2.396;2024-01-27T06:18:02;103503.59;;;3.17;68.36
62779;BME280;48821;48.796;2.396;2024-01-27T06:19:14;103497.53;;;3.16;69.03
62779;BME280;48821;48.796;2.396;2024-01-27T06:20:25;103504.44;;;3.15;68.67
62779;BME280;48821;48.796;2.396;2024-01-27T06:21:37;103511.34;;;3.15;68.86
62779;BME280;48821;48.796;2.396;2024-01-27T06:22:49;103505.25;;;3.14;69.10